createdAt,value
2022-12-08T00:03:30.439Z,3.07
2022-12-08T00:09:02.116Z,3.11
2022-12-08T00:14:33.813Z,3.15
2022-12-08T00:20:05.276Z,3.17
2022-12-08T00:25:36.971Z,3.17
2022-12-08T00:31:08.680Z,3.13
2022-12-08T00:36:47.039Z,3.04
2022-12-08T00:42:18.524Z,2.92
2022-12-08T00:47:50.245Z,2.88
2022-12-08T00:53:22.248Z,2.96
2022-12-08T00:58:53.790Z,2.86
2022-12-08T01:04:25.416Z,2.73
2022-12-08T01:09:57.923Z,2.67
2022-12-08T01:15:28.876Z,2.58
2022-12-08T01:21:00.959Z,2.53
2022-12-08T01:26:32.280Z,2.51
2022-12-08T01:32:04.075Z,2.45
2022-12-08T01:37:40.403Z,2.34
2022-12-08T01:43:11.896Z,2.33
2022-12-08T01:48:43.843Z,2.28
2022-12-08T01:54:15.316Z,2.32
2022-12-08T01:59:47.056Z,2.27
2022-12-08T02:05:18.972Z,2.22
2022-12-08T02:10:54.893Z,2.21
2022-12-08T02:16:22.283Z,2.21
2022-12-08T02:21:53.902Z,2.19
2022-12-08T02:27:25.638Z,2.28
2022-12-08T02:32:57.353Z,2.22
2022-12-08T02:38:35.457Z,2.16
2022-12-08T02:44:07.388Z,2.22
2022-12-08T02:49:38.963Z,2.29
2022-12-08T02:55:10.776Z,2.31
2022-12-08T03:00:42.454Z,2.26
2022-12-08T03:06:14.059Z,2.08
2022-12-08T03:11:45.955Z,2.04
2022-12-08T03:17:17.656Z,2.1
2022-12-08T03:22:49.221Z,2.03
2022-12-08T03:28:21.488Z,1.98
2022-12-08T03:33:52.705Z,1.87
2022-12-08T03:39:30.810Z,1.84
2022-12-08T03:45:02.487Z,1.91
2022-12-08T03:50:34.248Z,1.92
2022-12-08T03:56:06.113Z,1.97
2022-12-08T04:01:37.936Z,1.92
2022-12-08T04:07:09.432Z,1.92
2022-12-08T04:12:41.091Z,1.97
2022-12-08T04:18:13.041Z,2.01
2022-12-08T04:23:44.772Z,1.99
2022-12-08T04:29:16.261Z,1.92
2022-12-08T04:34:48.473Z,1.97
2022-12-08T04:40:24.298Z,2.02
2022-12-08T04:45:55.781Z,2.07
2022-12-08T04:51:27.518Z,2.04
2022-12-08T04:57:06.138Z,1.97
2022-12-08T05:02:38.090Z,2.0
2022-12-08T05:08:09.784Z,1.91
2022-12-08T05:13:41.535Z,1.88
2022-12-08T05:19:13.208Z,1.96
2022-12-08T05:24:47.564Z,1.88
2022-12-08T05:30:16.875Z,1.87
2022-12-08T05:35:48.193Z,1.93
2022-12-08T05:41:24.296Z,1.96
2022-12-08T05:46:56.302Z,1.98
2022-12-08T05:52:28.107Z,1.96
2022-12-08T05:58:03.120Z,2.01
2022-12-08T06:03:31.255Z,1.98
2022-12-08T06:09:02.953Z,2.02
2022-12-08T06:14:34.997Z,2.07
2022-12-08T06:20:06.635Z,2.0
2022-12-08T06:25:38.096Z,1.89
2022-12-08T06:31:10.208Z,1.82
2022-12-08T06:36:41.610Z,1.82
2022-12-08T06:42:17.680Z,1.81
2022-12-08T06:47:49.635Z,1.82
2022-12-08T06:53:21.337Z,1.8
2022-12-08T06:58:53.355Z,1.84
2022-12-08T07:04:24.548Z,1.84
2022-12-08T07:09:56.285Z,1.76
2022-12-08T07:15:28.029Z,1.74
2022-12-08T07:20:59.757Z,1.74
2022-12-08T07:26:31.592Z,1.77
2022-12-08T07:32:03.167Z,1.82
2022-12-08T07:37:35.076Z,1.85
2022-12-08T07:43:13.011Z,1.9
2022-12-08T07:48:44.879Z,1.89
2022-12-08T07:54:16.964Z,1.87
2022-12-08T07:59:48.161Z,2.07
2022-12-08T08:05:19.950Z,1.9
2022-12-08T08:10:51.618Z,2.12
2022-12-08T08:16:23.416Z,2.15
2022-12-08T08:21:55.078Z,1.92
2022-12-08T08:27:27.098Z,2.02
2022-12-08T08:32:58.989Z,2.1
2022-12-08T08:38:30.408Z,2.15
2022-12-08T08:44:08.394Z,2.19
2022-12-08T08:49:40.361Z,2.25
2022-12-08T08:55:12.030Z,2.41
2022-12-08T09:00:43.594Z,2.41
2022-12-08T09:06:15.562Z,2.51
2022-12-08T09:11:47.229Z,2.68
2022-12-08T09:17:18.720Z,2.77
2022-12-08T09:22:50.659Z,2.79
2022-12-08T09:28:22.185Z,2.97
2022-12-08T09:33:53.913Z,3.03
2022-12-08T09:39:25.633Z,3.14
2022-12-08T09:45:01.746Z,3.2
2022-12-08T09:50:33.565Z,3.16
2022-12-08T09:56:05.155Z,3.42
2022-12-08T10:01:36.947Z,3.59
2022-12-08T10:07:08.802Z,3.37
2022-12-08T10:12:40.361Z,3.41
2022-12-08T10:18:12.033Z,3.68
2022-12-08T10:23:43.957Z,4.24
2022-12-08T10:29:15.707Z,4.12
2022-12-08T10:34:49.227Z,4.17
2022-12-08T10:40:19.458Z,4.2
2022-12-08T10:45:55.235Z,4.07
2022-12-08T10:51:26.935Z,4.41
2022-12-08T10:56:58.758Z,4.63
2022-12-08T11:02:31.107Z,4.4
2022-12-08T11:08:02.204Z,4.23
2022-12-08T11:13:33.906Z,4.65
2022-12-08T11:19:05.383Z,4.9
2022-12-08T11:24:37.755Z,5.04
2022-12-08T11:30:13.984Z,4.97
2022-12-08T11:35:40.547Z,4.99
2022-12-08T11:41:16.275Z,4.88
2022-12-08T11:46:50.706Z,4.8
2022-12-08T11:52:22.189Z,4.69
2022-12-08T11:57:53.947Z,4.92
2022-12-08T12:03:25.834Z,4.98
2022-12-08T12:08:57.394Z,4.73
2022-12-08T12:14:29.015Z,4.85
2022-12-08T12:20:00.937Z,5.07
2022-12-08T12:25:32.482Z,5.08
2022-12-08T12:31:04.194Z,5.0
2022-12-08T12:36:35.941Z,5.05
2022-12-08T12:42:07.893Z,5.25
2022-12-08T12:47:47.685Z,4.99
2022-12-08T12:53:17.885Z,5.23
2022-12-08T12:58:49.676Z,5.17
2022-12-08T13:04:21.102Z,5.38
2022-12-08T13:09:52.659Z,5.47
2022-12-08T13:15:24.408Z,5.47
2022-12-08T13:20:56.350Z,5.32
2022-12-08T13:26:28.041Z,5.25
2022-12-08T13:31:59.726Z,5.3
2022-12-08T13:37:31.298Z,5.29
2022-12-08T13:43:03.236Z,5.48
2022-12-08T13:54:56.344Z,5.15
2022-12-08T13:56:37.005Z,5.15
2022-12-08T13:59:44.582Z,5.38
2022-12-08T14:05:18.450Z,5.6
2022-12-08T14:10:48.228Z,5.4
2022-12-08T14:16:19.732Z,5.35
2022-12-08T14:21:51.618Z,5.58
2022-12-08T14:27:23.206Z,5.41
2022-12-08T14:32:54.875Z,5.58
2022-12-08T14:38:26.586Z,5.43
2022-12-08T14:43:58.488Z,5.6
2022-12-08T14:49:34.569Z,5.48
2022-12-08T14:55:06.137Z,5.45
2022-12-08T15:00:37.905Z,5.45
2022-12-08T15:06:09.832Z,5.52
2022-12-08T15:11:41.316Z,5.49
2022-12-08T15:17:13.048Z,5.46
2022-12-08T15:22:45.089Z,5.45
2022-12-08T15:28:16.648Z,5.42
2022-12-08T15:33:48.274Z,5.28
2022-12-08T15:39:20.007Z,4.96
2022-12-08T15:44:51.911Z,5.12
2022-12-08T15:50:29.900Z,5.08
2022-12-08T15:56:26.726Z,4.85
2022-12-08T16:01:33.564Z,4.87
2022-12-08T16:07:20.620Z,5.02
2022-12-08T16:13:40.735Z,4.9
2022-12-08T16:13:57.737Z,4.9
2022-12-08T16:18:08.674Z,5.13
2022-12-08T16:23:43.397Z,5.01
2022-12-08T16:29:11.997Z,5.17
2022-12-08T16:34:43.837Z,5.14
2022-12-08T16:40:15.423Z,5.06
2022-12-08T16:45:47.461Z,5.12
2022-12-08T16:51:26.729Z,5.09
2022-12-08T16:56:55.096Z,5.05
2022-12-08T17:02:26.877Z,4.99
2022-12-08T17:07:58.582Z,4.92
2022-12-08T17:13:30.184Z,4.92
2022-12-08T17:19:01.999Z,4.84
2022-12-08T17:24:33.716Z,4.8
2022-12-08T17:30:05.713Z,4.71
2022-12-08T17:35:37.257Z,4.69
2022-12-08T17:41:08.892Z,4.72
2022-12-08T17:46:42.758Z,4.66
2022-12-08T17:52:18.803Z,4.59
2022-12-08T17:57:50.284Z,4.56
2022-12-08T18:03:22.218Z,4.5
2022-12-08T18:08:53.881Z,4.61
2022-12-08T18:14:25.653Z,4.58
2022-12-08T18:19:57.401Z,4.56
2022-12-08T18:25:28.997Z,4.56
2022-12-08T18:31:00.941Z,4.54
2022-12-08T18:36:32.424Z,4.56
2022-12-08T18:42:04.565Z,4.56
2022-12-08T18:47:35.866Z,4.59
2022-12-08T18:53:12.212Z,4.56
2022-12-08T18:58:43.707Z,4.61
2022-12-08T19:04:29.488Z,4.55
2022-12-08T19:09:47.380Z,4.49
2022-12-08T19:15:19.217Z,4.41
2022-12-08T19:20:50.986Z,4.41
2022-12-08T19:26:22.410Z,4.38
2022-12-08T19:31:54.690Z,4.28
2022-12-08T19:37:26.597Z,4.15
2022-12-08T19:42:58.432Z,4.12
2022-12-08T19:48:30.019Z,4.1
2022-12-08T19:54:07.987Z,4.04
2022-12-08T19:59:40.193Z,3.96
2022-12-08T20:05:11.444Z,3.8
2022-12-08T20:10:43.120Z,3.74
2022-12-08T20:16:15.098Z,3.71
2022-12-08T20:21:46.764Z,3.63
2022-12-08T20:27:18.492Z,3.57
2022-12-08T20:32:50.084Z,3.58
2022-12-08T20:38:21.803Z,3.6
2022-12-08T20:43:53.720Z,3.58
2022-12-08T20:49:28.505Z,3.56
2022-12-08T20:55:01.425Z,3.5
2022-12-08T21:00:33.048Z,3.52
2022-12-08T21:06:04.790Z,3.53
2022-12-08T21:11:36.544Z,3.47
2022-12-08T21:17:08.347Z,3.4
2022-12-08T21:22:40.503Z,3.41
2022-12-08T21:28:12.059Z,3.35
2022-12-08T21:33:43.421Z,3.26
2022-12-08T21:39:15.261Z,3.21
2022-12-08T21:44:47.046Z,3.05
2022-12-08T21:50:18.934Z,2.85
2022-12-08T21:55:54.859Z,2.74
2022-12-08T22:01:26.626Z,2.54
2022-12-08T22:06:58.429Z,2.49
2022-12-08T22:12:30.195Z,2.48
2022-12-08T22:18:01.678Z,2.47
2022-12-08T22:23:33.412Z,2.31
2022-12-08T22:29:05.319Z,2.26
2022-12-08T22:34:37.266Z,2.21
2022-12-08T22:40:08.976Z,2.21
2022-12-08T22:45:40.235Z,2.2
2022-12-08T22:51:11.927Z,2.02
2022-12-08T22:56:48.213Z,2.08
2022-12-08T23:02:20.165Z,2.07
2022-12-08T23:07:51.541Z,2.08
2022-12-08T23:13:23.345Z,2.06
2022-12-08T23:18:55.149Z,1.9
2022-12-08T23:24:27.248Z,1.83
2022-12-08T23:29:58.616Z,1.79
2022-12-08T23:35:30.326Z,1.79
2022-12-08T23:41:02.066Z,1.8
2022-12-08T23:46:33.673Z,1.83
2022-12-08T23:52:05.532Z,1.83
2022-12-08T23:57:41.578Z,1.75
